Airfield :
LOGIN :

Register | Disclaimer

   EN    FR    IT 

 










Legend :    VFR   Marginal VFR   IFR   Intensive IFR   Very Intensive IFR
Visi :
Ceiling :
>= 8 km
>= 3000ft
5 to 8 km
1000 to 3000 ft
1500m to 5 km
500 to 1000 ft
800 to 1500m
200 to 500 ft
< 800m
< 200 ft
Symbols :   Thunderstorms  Fog  Heavy snow  Heavy precipitations  Wind > 20 kt
SIGMETs :     Misc.  Thunderstorms  Icing  Turbulence  Mountain Waves  Volcanic Ashes






- Airport Elevation : 124 ft
- IATA code : AVN


LFMV - Avignon Caumont

CURRENT METAR :
  • 101330Z AUTO 34017G31KT 300V010 CAVOK 09/00 Q1022 NOSIG

EXPIRED METARs :
  • 101300Z AUTO 34028KT CAVOK 09/M00 Q1020 BECMG 35018G30KT
  • 101230Z AUTO 35022G33KT CAVOK 09/00 Q1022 NOSIG
  • 101200Z AUTO 34029G41KT CAVOK 09/M00 Q1022 BECMG 35018G30KT
  • 101130Z AUTO 34026G36KT CAVOK 09/01 Q1022 NOSIG
  • 101100Z AUTO 34024KT CAVOK 09/00 Q1023 BECMG 35018G30KT

TAF TAF LFMV
Valid from the 10 at 09:00 until the 11 at 09:00 UTC


100800Z 1009/1109 35025G40KT 9999 SCT040
BECMG 1009/1012 35018G30KT
BECMG 1017/1019 36005KT
ATIS : +33 4 90 84 32 84



MET'MAP, your aeronautical weather chart ! - Copyright ORBIFLY December 2007 - Disclaimer

ORBIFLY MET'MAP TEAM :

Programming & Development : Alexandra Zaïnal
Concept & original design : Baudouin d'Aumeries
Assistance for programming : Marc-Olivier Méhu
Technical & hardware support : Manuel Goepfert

Contact : metmap@orbifly.com




SOURCES & CREDITS :

   NOAA